sensor_id;sensor_type;location;lat;lon;timestamp;P1;durP1;ratioP1;P2;durP2;ratioP2
69894;SDS011;57172;52.034;5.090;2022-10-14T00:01:06;64.82;;;12.52;;
69894;SDS011;57172;52.034;5.090;2022-10-14T00:03:36;132.25;;;14.45;;
69894;SDS011;57172;52.034;5.090;2022-10-14T00:06:10;137.32;;;14.30;;
69894;SDS011;57172;52.034;5.090;2022-10-14T00:08:39;195.23;;;15.20;;
69894;SDS011;57172;52.034;5.090;2022-10-14T00:11:20;92.03;;;14.20;;
69894;SDS011;57172;52.034;5.090;2022-10-14T00:13:53;108.53;;;14.60;;
69894;SDS011;57172;52.034;5.090;2022-10-14T00:16:23;154.23;;;14.73;;
69894;SDS011;57172;52.034;5.090;2022-10-14T00:18:58;87.65;;;13.80;;
69894;SDS011;57172;52.034;5.090;2022-10-14T00:21:25;120.00;;;13.33;;
69894;SDS011;57172;52.034;5.090;2022-10-14T00:23:53;93.10;;;14.90;;
69894;SDS011;57172;52.034;5.090;2022-10-14T00:26:24;115.78;;;14.68;;
69894;SDS011;57172;52.034;5.090;2022-10-14T00:28:54;66.57;;;13.85;;
69894;SDS011;57172;52.034;5.090;2022-10-14T00:31:24;52.78;;;13.93;;
69894;SDS011;57172;52.034;5.090;2022-10-14T00:33:52;93.33;;;15.20;;
69894;SDS011;57172;52.034;5.090;2022-10-14T00:36:20;65.70;;;13.77;;
69894;SDS011;57172;52.034;5.090;2022-10-14T00:38:49;75.57;;;14.77;;
69894;SDS011;57172;52.034;5.090;2022-10-14T00:41:19;110.18;;;14.45;;
69894;SDS011;57172;52.034;5.090;2022-10-14T00:44:00;54.35;;;13.98;;
69894;SDS011;57172;52.034;5.090;2022-10-14T00:46:33;45.43;;;14.57;;
69894;SDS011;57172;52.034;5.090;2022-10-14T00:49:09;54.50;;;14.40;;
69894;SDS011;57172;52.034;5.090;2022-10-14T00:51:41;59.90;;;15.00;;
69894;SDS011;57172;52.034;5.090;2022-10-14T00:54:31;38.83;;;13.23;;
69894;SDS011;57172;52.034;5.090;2022-10-14T00:57:08;61.22;;;14.15;;
69894;SDS011;57172;52.034;5.090;2022-10-14T00:59:35;46.60;;;13.70;;
69894;SDS011;57172;52.034;5.090;2022-10-14T01:02:02;55.17;;;14.38;;
69894;SDS011;57172;52.034;5.090;2022-10-14T01:04:29;38.45;;;13.57;;
69894;SDS011;57172;52.034;5.090;2022-10-14T01:09:27;46.70;;;13.85;;
69894;SDS011;57172;52.034;5.090;2022-10-14T01:12:07;33.33;;;14.47;;
69894;SDS011;57172;52.034;5.090;2022-10-14T01:18:09;57.60;;;14.85;;
69894;SDS011;57172;52.034;5.090;2022-10-14T01:23:52;55.63;;;16.27;;
69894;SDS011;57172;52.034;5.090;2022-10-14T01:37:52;46.08;;;17.55;;
69894;SDS011;57172;52.034;5.090;2022-10-14T01:40:32;47.10;;;16.67;;
69894;SDS011;57172;52.034;5.090;2022-10-14T01:43:04;47.20;;;17.73;;
69894;SDS011;57172;52.034;5.090;2022-10-14T01:45:32;54.92;;;18.02;;
69894;SDS011;57172;52.034;5.090;2022-10-14T01:48:01;51.45;;;18.90;;
69894;SDS011;57172;52.034;5.090;2022-10-14T01:50:30;48.47;;;17.80;;
69894;SDS011;57172;52.034;5.090;2022-10-14T01:53:08;51.03;;;18.40;;
69894;SDS011;57172;52.034;5.090;2022-10-14T01:55:41;46.78;;;17.98;;
69894;SDS011;57172;52.034;5.090;2022-10-14T01:58:11;60.33;;;19.50;;
69894;SDS011;57172;52.034;5.090;2022-10-14T02:00:40;49.50;;;18.52;;
69894;SDS011;57172;52.034;5.090;2022-10-14T02:03:07;53.05;;;19.23;;
69894;SDS011;57172;52.034;5.090;2022-10-14T02:05:36;48.90;;;18.73;;
69894;SDS011;57172;52.034;5.090;2022-10-14T02:16:33;60.38;;;19.20;;
69894;SDS011;57172;52.034;5.090;2022-10-14T02:22:37;80.57;;;20.17;;
69894;SDS011;57172;52.034;5.090;2022-10-14T02:24:52;75.00;;;21.00;;
69894;SDS011;57172;52.034;5.090;2022-10-14T02:27:21;65.22;;;20.58;;
69894;SDS011;57172;52.034;5.090;2022-10-14T02:29:52;68.30;;;21.50;;
69894;SDS011;57172;52.034;5.090;2022-10-14T02:32:21;61.00;;;20.70;;
69894;SDS011;57172;52.034;5.090;2022-10-14T02:34:52;71.88;;;21.45;;
69894;SDS011;57172;52.034;5.090;2022-10-14T02:37:21;66.28;;;21.10;;
69894;SDS011;57172;52.034;5.090;2022-10-14T02:39:53;69.72;;;21.35;;
69894;SDS011;57172;52.034;5.090;2022-10-14T02:42:28;78.72;;;21.55;;
69894;SDS011;57172;52.034;5.090;2022-10-14T02:44:57;68.90;;;20.80;;
69894;SDS011;57172;52.034;5.090;2022-10-14T02:47:25;75.57;;;22.33;;
69894;SDS011;57172;52.034;5.090;2022-10-14T02:49:53;72.28;;;21.85;;
69894;SDS011;57172;52.034;5.090;2022-10-14T02:52:22;66.20;;;21.48;;
69894;SDS011;57172;52.034;5.090;2022-10-14T02:54:51;92.55;;;23.83;;
69894;SDS011;57172;52.034;5.090;2022-10-14T02:57:18;66.80;;;21.77;;
69894;SDS011;57172;52.034;5.090;2022-10-14T02:59:46;64.85;;;20.55;;
69894;SDS011;57172;52.034;5.090;2022-10-14T03:02:13;64.53;;;21.27;;
69894;SDS011;57172;52.034;5.090;2022-10-14T03:04:40;66.80;;;22.15;;
69894;SDS011;57172;52.034;5.090;2022-10-14T03:07:08;71.35;;;21.45;;
69894;SDS011;57172;52.034;5.090;2022-10-14T03:09:41;67.80;;;21.97;;
69894;SDS011;57172;52.034;5.090;2022-10-14T03:12:08;68.68;;;21.80;;
69894;SDS011;57172;52.034;5.090;2022-10-14T03:14:36;64.00;;;22.02;;
69894;SDS011;57172;52.034;5.090;2022-10-14T03:17:04;76.93;;;22.80;;
69894;SDS011;57172;52.034;5.090;2022-10-14T03:19:32;94.05;;;24.08;;
69894;SDS011;57172;52.034;5.090;2022-10-14T03:21:59;66.97;;;22.80;;
69894;SDS011;57172;52.034;5.090;2022-10-14T03:24:27;74.50;;;22.95;;
69894;SDS011;57172;52.034;5.090;2022-10-14T03:27:20;74.30;;;21.83;;
69894;SDS011;57172;52.034;5.090;2022-10-14T03:29:51;80.57;;;23.52;;
69894;SDS011;57172;52.034;5.090;2022-10-14T03:32:21;97.13;;;23.85;;
69894;SDS011;57172;52.034;5.090;2022-10-14T03:35:18;83.27;;;22.87;;
69894;SDS011;57172;52.034;5.090;2022-10-14T03:37:47;96.03;;;23.35;;
69894;SDS011;57172;52.034;5.090;2022-10-14T03:40:17;77.03;;;22.58;;
69894;SDS011;57172;52.034;5.090;2022-10-14T03:42:45;81.25;;;23.02;;
69894;SDS011;57172;52.034;5.090;2022-10-14T03:45:13;77.65;;;22.73;;
69894;SDS011;57172;52.034;5.090;2022-10-14T03:47:40;128.43;;;25.83;;
69894;SDS011;57172;52.034;5.090;2022-10-14T03:50:08;95.85;;;23.73;;
69894;SDS011;57172;52.034;5.090;2022-10-14T03:52:41;208.43;;;26.58;;
69894;SDS011;57172;52.034;5.090;2022-10-14T03:55:21;202.10;;;27.38;;
69894;SDS011;57172;52.034;5.090;2022-10-14T03:57:49;134.52;;;26.90;;
69894;SDS011;57172;52.034;5.090;2022-10-14T04:00:17;103.90;;;25.97;;
69894;SDS011;57172;52.034;5.090;2022-10-14T04:02:51;149.27;;;26.40;;
69894;SDS011;57172;52.034;5.090;2022-10-14T04:05:32;104.40;;;25.65;;
69894;SDS011;57172;52.034;5.090;2022-10-14T04:08:06;161.65;;;27.30;;
69894;SDS011;57172;52.034;5.090;2022-10-14T04:10:34;108.70;;;26.85;;
69894;SDS011;57172;52.034;5.090;2022-10-14T04:13:01;130.13;;;27.80;;
69894;SDS011;57172;52.034;5.090;2022-10-14T04:15:36;127.05;;;28.25;;
69894;SDS011;57172;52.034;5.090;2022-10-14T04:18:17;140.57;;;28.50;;
69894;SDS011;57172;52.034;5.090;2022-10-14T04:20:46;121.13;;;27.23;;
69894;SDS011;57172;52.034;5.090;2022-10-14T04:23:14;112.38;;;27.15;;
69894;SDS011;57172;52.034;5.090;2022-10-14T04:25:44;198.73;;;28.23;;
69894;SDS011;57172;52.034;5.090;2022-10-14T04:28:11;124.63;;;26.80;;
69894;SDS011;57172;52.034;5.090;2022-10-14T04:30:56;139.50;;;27.88;;
69894;SDS011;57172;52.034;5.090;2022-10-14T04:33:28;119.85;;;26.30;;
69894;SDS011;57172;52.034;5.090;2022-10-14T04:36:02;114.18;;;26.20;;
69894;SDS011;57172;52.034;5.090;2022-10-14T04:38:34;125.77;;;26.23;;
69894;SDS011;57172;52.034;5.090;2022-10-14T04:41:05;119.38;;;26.30;;
69894;SDS011;57172;52.034;5.090;2022-10-14T04:43:33;149.73;;;27.52;;
69894;SDS011;57172;52.034;5.090;2022-10-14T04:46:14;136.25;;;26.92;;
69894;SDS011;57172;52.034;5.090;2022-10-14T04:48:41;116.40;;;25.92;;
69894;SDS011;57172;52.034;5.090;2022-10-14T04:51:08;102.83;;;25.67;;
69894;SDS011;57172;52.034;5.090;2022-10-14T04:53:46;162.23;;;28.52;;
69894;SDS011;57172;52.034;5.090;2022-10-14T04:56:33;141.98;;;27.33;;
69894;SDS011;57172;52.034;5.090;2022-10-14T04:59:02;115.75;;;26.52;;
69894;SDS011;57172;52.034;5.090;2022-10-14T05:01:46;106.85;;;25.17;;
69894;SDS011;57172;52.034;5.090;2022-10-14T05:04:14;103.27;;;25.77;;
69894;SDS011;57172;52.034;5.090;2022-10-14T05:06:43;98.95;;;25.30;;
69894;SDS011;57172;52.034;5.090;2022-10-14T05:09:12;104.55;;;26.00;;
69894;SDS011;57172;52.034;5.090;2022-10-14T05:11:39;104.20;;;26.35;;
69894;SDS011;57172;52.034;5.090;2022-10-14T05:14:06;104.47;;;25.48;;
69894;SDS011;57172;52.034;5.090;2022-10-14T05:16:35;118.87;;;26.87;;
69894;SDS011;57172;52.034;5.090;2022-10-14T05:19:06;101.97;;;25.63;;
69894;SDS011;57172;52.034;5.090;2022-10-14T05:21:37;87.78;;;24.48;;
69894;SDS011;57172;52.034;5.090;2022-10-14T05:24:10;116.53;;;25.88;;
69894;SDS011;57172;52.034;5.090;2022-10-14T05:26:38;96.85;;;25.27;;
69894;SDS011;57172;52.034;5.090;2022-10-14T05:29:09;104.37;;;26.00;;
69894;SDS011;57172;52.034;5.090;2022-10-14T05:31:38;102.95;;;25.90;;
69894;SDS011;57172;52.034;5.090;2022-10-14T05:34:34;89.43;;;23.98;;
69894;SDS011;57172;52.034;5.090;2022-10-14T05:37:03;95.03;;;23.25;;
69894;SDS011;57172;52.034;5.090;2022-10-14T05:39:37;78.53;;;22.80;;
69894;SDS011;57172;52.034;5.090;2022-10-14T05:42:04;79.87;;;21.97;;
69894;SDS011;57172;52.034;5.090;2022-10-14T05:44:32;70.95;;;21.30;;
69894;SDS011;57172;52.034;5.090;2022-10-14T05:47:00;68.45;;;20.38;;
69894;SDS011;57172;52.034;5.090;2022-10-14T05:49:27;64.93;;;18.92;;
69894;SDS011;57172;52.034;5.090;2022-10-14T05:51:56;62.40;;;18.80;;
69894;SDS011;57172;52.034;5.090;2022-10-14T05:54:22;62.90;;;17.90;;
69894;SDS011;57172;52.034;5.090;2022-10-14T05:56:52;55.88;;;17.13;;
69894;SDS011;57172;52.034;5.090;2022-10-14T05:59:22;54.13;;;16.67;;
69894;SDS011;57172;52.034;5.090;2022-10-14T06:01:50;61.67;;;17.25;;
69894;SDS011;57172;52.034;5.090;2022-10-14T06:04:18;49.90;;;15.88;;
69894;SDS011;57172;52.034;5.090;2022-10-14T06:06:46;49.93;;;15.43;;
69894;SDS011;57172;52.034;5.090;2022-10-14T06:09:14;48.55;;;15.40;;
69894;SDS011;57172;52.034;5.090;2022-10-14T06:11:41;47.08;;;14.82;;
69894;SDS011;57172;52.034;5.090;2022-10-14T06:14:08;47.33;;;14.05;;
69894;SDS011;57172;52.034;5.090;2022-10-14T06:16:35;41.30;;;13.45;;
69894;SDS011;57172;52.034;5.090;2022-10-14T06:19:05;43.70;;;13.60;;
69894;SDS011;57172;52.034;5.090;2022-10-14T06:21:32;46.13;;;14.15;;
69894;SDS011;57172;52.034;5.090;2022-10-14T06:23:59;40.75;;;13.23;;
69894;SDS011;57172;52.034;5.090;2022-10-14T06:26:25;43.38;;;13.50;;
69894;SDS011;57172;52.034;5.090;2022-10-14T06:28:52;43.80;;;12.85;;
69894;SDS011;57172;52.034;5.090;2022-10-14T06:31:19;34.17;;;12.47;;
69894;SDS011;57172;52.034;5.090;2022-10-14T06:33:46;44.47;;;13.27;;
69894;SDS011;57172;52.034;5.090;2022-10-14T06:36:13;35.47;;;12.13;;
69894;SDS011;57172;52.034;5.090;2022-10-14T06:38:40;31.45;;;11.32;;
69894;SDS011;57172;52.034;5.090;2022-10-14T06:41:07;32.20;;;11.75;;
69894;SDS011;57172;52.034;5.090;2022-10-14T06:43:34;32.27;;;11.70;;
69894;SDS011;57172;52.034;5.090;2022-10-14T06:46:01;35.30;;;11.68;;
69894;SDS011;57172;52.034;5.090;2022-10-14T06:48:29;35.63;;;11.60;;
69894;SDS011;57172;52.034;5.090;2022-10-14T06:50:59;32.40;;;11.48;;
69894;SDS011;57172;52.034;5.090;2022-10-14T06:53:27;35.35;;;11.57;;
69894;SDS011;57172;52.034;5.090;2022-10-14T06:55:58;37.83;;;11.90;;
69894;SDS011;57172;52.034;5.090;2022-10-14T06:58:26;31.65;;;11.90;;
69894;SDS011;57172;52.034;5.090;2022-10-14T07:00:54;33.72;;;11.88;;
69894;SDS011;57172;52.034;5.090;2022-10-14T07:03:26;41.47;;;12.40;;
69894;SDS011;57172;52.034;5.090;2022-10-14T07:05:53;37.00;;;13.35;;
69894;SDS011;57172;52.034;5.090;2022-10-14T07:08:20;45.57;;;13.17;;
69894;SDS011;57172;52.034;5.090;2022-10-14T07:10:46;40.35;;;13.02;;
69894;SDS011;57172;52.034;5.090;2022-10-14T07:13:13;44.40;;;13.63;;
69894;SDS011;57172;52.034;5.090;2022-10-14T07:15:40;37.55;;;13.20;;
69894;SDS011;57172;52.034;5.090;2022-10-14T07:18:07;41.45;;;14.50;;
69894;SDS011;57172;52.034;5.090;2022-10-14T07:20:34;48.30;;;14.20;;
69894;SDS011;57172;52.034;5.090;2022-10-14T07:23:00;57.95;;;15.57;;
69894;SDS011;57172;52.034;5.090;2022-10-14T07:25:27;90.82;;;16.83;;
69894;SDS011;57172;52.034;5.090;2022-10-14T07:27:54;79.15;;;15.70;;
69894;SDS011;57172;52.034;5.090;2022-10-14T07:30:21;53.65;;;14.07;;
69894;SDS011;57172;52.034;5.090;2022-10-14T07:32:48;43.60;;;13.70;;
69894;SDS011;57172;52.034;5.090;2022-10-14T07:35:15;42.78;;;13.55;;
69894;SDS011;57172;52.034;5.090;2022-10-14T07:37:44;53.72;;;15.40;;
69894;SDS011;57172;52.034;5.090;2022-10-14T07:40:11;35.00;;;12.98;;
69894;SDS011;57172;52.034;5.090;2022-10-14T07:42:39;56.60;;;15.82;;
69894;SDS011;57172;52.034;5.090;2022-10-14T07:45:06;44.27;;;14.17;;
69894;SDS011;57172;52.034;5.090;2022-10-14T07:47:33;54.63;;;16.90;;
69894;SDS011;57172;52.034;5.090;2022-10-14T07:50:00;63.47;;;16.98;;
69894;SDS011;57172;52.034;5.090;2022-10-14T07:52:27;53.45;;;16.35;;
69894;SDS011;57172;52.034;5.090;2022-10-14T07:54:54;57.00;;;16.10;;
69894;SDS011;57172;52.034;5.090;2022-10-14T07:57:21;54.23;;;16.03;;
69894;SDS011;57172;52.034;5.090;2022-10-14T07:59:49;86.32;;;20.77;;
69894;SDS011;57172;52.034;5.090;2022-10-14T08:02:17;99.15;;;21.77;;
69894;SDS011;57172;52.034;5.090;2022-10-14T08:04:45;76.53;;;19.30;;
69894;SDS011;57172;52.034;5.090;2022-10-14T08:07:12;41.88;;;14.57;;
69894;SDS011;57172;52.034;5.090;2022-10-14T08:09:40;55.77;;;18.00;;
69894;SDS011;57172;52.034;5.090;2022-10-14T08:12:08;67.55;;;18.42;;
69894;SDS011;57172;52.034;5.090;2022-10-14T08:14:36;58.95;;;18.35;;
69894;SDS011;57172;52.034;5.090;2022-10-14T08:17:03;56.45;;;18.00;;
69894;SDS011;57172;52.034;5.090;2022-10-14T08:19:30;46.03;;;16.05;;
69894;SDS011;57172;52.034;5.090;2022-10-14T08:21:58;41.37;;;14.47;;
69894;SDS011;57172;52.034;5.090;2022-10-14T08:24:24;37.05;;;14.07;;
69894;SDS011;57172;52.034;5.090;2022-10-14T08:26:55;40.05;;;14.38;;
69894;SDS011;57172;52.034;5.090;2022-10-14T08:29:24;30.65;;;13.48;;
69894;SDS011;57172;52.034;5.090;2022-10-14T08:31:52;36.08;;;14.57;;
69894;SDS011;57172;52.034;5.090;2022-10-14T08:34:20;34.77;;;14.43;;
69894;SDS011;57172;52.034;5.090;2022-10-14T08:36:49;32.85;;;13.85;;
69894;SDS011;57172;52.034;5.090;2022-10-14T08:39:17;36.47;;;14.52;;
69894;SDS011;57172;52.034;5.090;2022-10-14T08:44:27;29.33;;;13.57;;
69894;SDS011;57172;52.034;5.090;2022-10-14T08:47:13;29.77;;;12.90;;
69894;SDS011;57172;52.034;5.090;2022-10-14T08:49:46;26.95;;;13.82;;
69894;SDS011;57172;52.034;5.090;2022-10-14T08:52:42;28.65;;;13.25;;
69894;SDS011;57172;52.034;5.090;2022-10-14T09:03:40;25.45;;;12.98;;
69894;SDS011;57172;52.034;5.090;2022-10-14T09:06:22;25.70;;;12.63;;
69894;SDS011;57172;52.034;5.090;2022-10-14T09:08:52;22.33;;;11.15;;
69894;SDS011;57172;52.034;5.090;2022-10-14T09:11:34;23.88;;;12.43;;
69894;SDS011;57172;52.034;5.090;2022-10-14T09:14:07;24.20;;;12.13;;
69894;SDS011;57172;52.034;5.090;2022-10-14T09:16:39;20.38;;;10.82;;
69894;SDS011;57172;52.034;5.090;2022-10-14T09:19:14;23.17;;;11.80;;
69894;SDS011;57172;52.034;5.090;2022-10-14T09:22:02;21.67;;;11.45;;
69894;SDS011;57172;52.034;5.090;2022-10-14T09:24:35;22.23;;;11.30;;
69894;SDS011;57172;52.034;5.090;2022-10-14T09:27:03;18.30;;;10.20;;
69894;SDS011;57172;52.034;5.090;2022-10-14T09:29:41;19.60;;;10.57;;
69894;SDS011;57172;52.034;5.090;2022-10-14T09:32:25;18.92;;;10.98;;
69894;SDS011;57172;52.034;5.090;2022-10-14T09:34:55;19.55;;;10.50;;
69894;SDS011;57172;52.034;5.090;2022-10-14T09:39:58;18.53;;;9.53;;
69894;SDS011;57172;52.034;5.090;2022-10-14T09:42:35;18.70;;;10.13;;
69894;SDS011;57172;52.034;5.090;2022-10-14T09:45:10;20.15;;;9.68;;
69894;SDS011;57172;52.034;5.090;2022-10-14T09:47:48;17.42;;;9.38;;
69894;SDS011;57172;52.034;5.090;2022-10-14T09:50:21;15.20;;;7.72;;
69894;SDS011;57172;52.034;5.090;2022-10-14T09:52:52;14.33;;;8.20;;
69894;SDS011;57172;52.034;5.090;2022-10-14T09:55:22;17.77;;;9.40;;
69894;SDS011;57172;52.034;5.090;2022-10-14T09:57:57;16.42;;;9.10;;
69894;SDS011;57172;52.034;5.090;2022-10-14T10:00:39;16.60;;;9.15;;
69894;SDS011;57172;52.034;5.090;2022-10-14T10:03:06;16.10;;;8.98;;
69894;SDS011;57172;52.034;5.090;2022-10-14T10:05:34;17.67;;;8.40;;
69894;SDS011;57172;52.034;5.090;2022-10-14T10:08:15;16.92;;;8.45;;
69894;SDS011;57172;52.034;5.090;2022-10-14T10:10:57;14.48;;;8.20;;
69894;SDS011;57172;52.034;5.090;2022-10-14T10:13:40;15.80;;;8.32;;
69894;SDS011;57172;52.034;5.090;2022-10-14T10:18:49;13.53;;;7.87;;
69894;SDS011;57172;52.034;5.090;2022-10-14T10:21:18;12.02;;;7.00;;
69894;SDS011;57172;52.034;5.090;2022-10-14T10:23:51;11.75;;;6.20;;
69894;SDS011;57172;52.034;5.090;2022-10-14T10:26:27;9.57;;;5.93;;
69894;SDS011;57172;52.034;5.090;2022-10-14T10:28:59;10.95;;;6.40;;
69894;SDS011;57172;52.034;5.090;2022-10-14T10:34:37;12.40;;;6.63;;
69894;SDS011;57172;52.034;5.090;2022-10-14T10:37:29;9.38;;;5.90;;
69894;SDS011;57172;52.034;5.090;2022-10-14T10:40:06;8.90;;;5.45;;
69894;SDS011;57172;52.034;5.090;2022-10-14T10:43:01;8.82;;;5.45;;
69894;SDS011;57172;52.034;5.090;2022-10-14T10:51:15;12.02;;;6.22;;
69894;SDS011;57172;52.034;5.090;2022-10-14T10:59:04;9.80;;;6.10;;
69894;SDS011;57172;52.034;5.090;2022-10-14T11:07:04;9.38;;;5.88;;
69894;SDS011;57172;52.034;5.090;2022-10-14T11:10:15;11.25;;;6.72;;
69894;SDS011;57172;52.034;5.090;2022-10-14T11:30:51;9.05;;;5.10;;
69894;SDS011;57172;52.034;5.090;2022-10-14T11:38:44;8.80;;;4.97;;
69894;SDS011;57172;52.034;5.090;2022-10-14T11:44:46;10.90;;;5.70;;
69894;SDS011;57172;52.034;5.090;2022-10-14T11:47:24;12.73;;;5.28;;
69894;SDS011;57172;52.034;5.090;2022-10-14T11:50:16;8.38;;;4.72;;
69894;SDS011;57172;52.034;5.090;2022-10-14T11:53:03;10.52;;;5.93;;
69894;SDS011;57172;52.034;5.090;2022-10-14T11:56:18;10.23;;;5.70;;
69894;SDS011;57172;52.034;5.090;2022-10-14T11:58:58;10.45;;;5.95;;
69894;SDS011;57172;52.034;5.090;2022-10-14T12:01:36;9.18;;;5.80;;
69894;SDS011;57172;52.034;5.090;2022-10-14T12:04:11;9.85;;;5.80;;
69894;SDS011;57172;52.034;5.090;2022-10-14T12:06:50;10.35;;;6.40;;
69894;SDS011;57172;52.034;5.090;2022-10-14T12:12:14;11.85;;;6.25;;
69894;SDS011;57172;52.034;5.090;2022-10-14T12:14:48;10.07;;;5.95;;
69894;SDS011;57172;52.034;5.090;2022-10-14T12:20:22;9.82;;;5.57;;
69894;SDS011;57172;52.034;5.090;2022-10-14T12:23:14;8.93;;;5.37;;
69894;SDS011;57172;52.034;5.090;2022-10-14T12:28:38;9.18;;;5.18;;
69894;SDS011;57172;52.034;5.090;2022-10-14T12:36:41;8.10;;;4.40;;
69894;SDS011;57172;52.034;5.090;2022-10-14T12:44:49;6.80;;;4.10;;
69894;SDS011;57172;52.034;5.090;2022-10-14T12:47:27;6.57;;;4.20;;
69894;SDS011;57172;52.034;5.090;2022-10-14T12:50:44;6.93;;;4.30;;
69894;SDS011;57172;52.034;5.090;2022-10-14T12:52:56;6.90;;;4.15;;
69894;SDS011;57172;52.034;5.090;2022-10-14T12:55:28;6.15;;;3.70;;
69894;SDS011;57172;52.034;5.090;2022-10-14T12:58:00;8.02;;;4.57;;
69894;SDS011;57172;52.034;5.090;2022-10-14T13:00:39;8.02;;;4.80;;
69894;SDS011;57172;52.034;5.090;2022-10-14T13:03:15;8.50;;;4.70;;
69894;SDS011;57172;52.034;5.090;2022-10-14T13:05:45;8.65;;;5.18;;
69894;SDS011;57172;52.034;5.090;2022-10-14T13:10:46;9.48;;;5.10;;
69894;SDS011;57172;52.034;5.090;2022-10-14T13:18:58;9.30;;;5.45;;
69894;SDS011;57172;52.034;5.090;2022-10-14T13:39:56;11.52;;;6.82;;
69894;SDS011;57172;52.034;5.090;2022-10-14T13:42:33;11.80;;;7.27;;
69894;SDS011;57172;52.034;5.090;2022-10-14T13:45:05;14.75;;;7.90;;
69894;SDS011;57172;52.034;5.090;2022-10-14T13:47:39;12.35;;;7.70;;
69894;SDS011;57172;52.034;5.090;2022-10-14T13:50:08;12.98;;;7.63;;
69894;SDS011;57172;52.034;5.090;2022-10-14T13:52:37;13.02;;;7.68;;
69894;SDS011;57172;52.034;5.090;2022-10-14T13:58:07;14.10;;;7.95;;
69894;SDS011;57172;52.034;5.090;2022-10-14T14:00:41;14.35;;;8.15;;
69894;SDS011;57172;52.034;5.090;2022-10-14T14:05:44;12.27;;;8.27;;
69894;SDS011;57172;52.034;5.090;2022-10-14T14:08:14;12.77;;;7.90;;
69894;SDS011;57172;52.034;5.090;2022-10-14T14:11:05;12.65;;;7.63;;
69894;SDS011;57172;52.034;5.090;2022-10-14T14:13:47;13.60;;;7.70;;
69894;SDS011;57172;52.034;5.090;2022-10-14T14:16:27;10.38;;;6.88;;
69894;SDS011;57172;52.034;5.090;2022-10-14T14:18:57;11.23;;;6.90;;
69894;SDS011;57172;52.034;5.090;2022-10-14T14:21:40;11.90;;;7.53;;
69894;SDS011;57172;52.034;5.090;2022-10-14T14:24:15;11.68;;;7.90;;
69894;SDS011;57172;52.034;5.090;2022-10-14T14:26:50;11.57;;;7.55;;
69894;SDS011;57172;52.034;5.090;2022-10-14T14:29:22;12.43;;;7.43;;
69894;SDS011;57172;52.034;5.090;2022-10-14T14:31:52;12.00;;;7.03;;
69894;SDS011;57172;52.034;5.090;2022-10-14T14:34:37;12.70;;;7.50;;
69894;SDS011;57172;52.034;5.090;2022-10-14T14:37:11;12.40;;;7.70;;
69894;SDS011;57172;52.034;5.090;2022-10-14T14:40:05;11.77;;;7.53;;
69894;SDS011;57172;52.034;5.090;2022-10-14T14:42:40;11.38;;;6.70;;
69894;SDS011;57172;52.034;5.090;2022-10-14T14:45:18;13.10;;;7.47;;
69894;SDS011;57172;52.034;5.090;2022-10-14T14:47:48;12.40;;;7.10;;
69894;SDS011;57172;52.034;5.090;2022-10-14T14:50:20;14.02;;;7.07;;
69894;SDS011;57172;52.034;5.090;2022-10-14T14:52:57;12.15;;;7.03;;
69894;SDS011;57172;52.034;5.090;2022-10-14T14:55:35;9.70;;;6.20;;
69894;SDS011;57172;52.034;5.090;2022-10-14T15:00:46;9.63;;;6.30;;
69894;SDS011;57172;52.034;5.090;2022-10-14T15:03:15;9.32;;;5.55;;
69894;SDS011;57172;52.034;5.090;2022-10-14T15:05:58;8.35;;;5.57;;
69894;SDS011;57172;52.034;5.090;2022-10-14T15:08:28;9.48;;;5.78;;
69894;SDS011;57172;52.034;5.090;2022-10-14T15:10:58;9.93;;;5.90;;
69894;SDS011;57172;52.034;5.090;2022-10-14T15:13:27;10.17;;;6.10;;
69894;SDS011;57172;52.034;5.090;2022-10-14T15:16:03;9.77;;;6.30;;
69894;SDS011;57172;52.034;5.090;2022-10-14T15:18:31;9.63;;;6.55;;
69894;SDS011;57172;52.034;5.090;2022-10-14T15:21:05;10.02;;;6.20;;
69894;SDS011;57172;52.034;5.090;2022-10-14T15:32:33;9.80;;;6.40;;
69894;SDS011;57172;52.034;5.090;2022-10-14T15:34:40;10.30;;;6.90;;
69894;SDS011;57172;52.034;5.090;2022-10-14T15:37:11;9.63;;;6.55;;
69894;SDS011;57172;52.034;5.090;2022-10-14T15:39:38;13.53;;;6.93;;
69894;SDS011;57172;52.034;5.090;2022-10-14T15:42:10;10.85;;;7.20;;
69894;SDS011;57172;52.034;5.090;2022-10-14T15:44:37;10.25;;;7.13;;
69894;SDS011;57172;52.034;5.090;2022-10-14T15:47:06;9.70;;;7.07;;
69894;SDS011;57172;52.034;5.090;2022-10-14T15:49:46;10.18;;;7.10;;
69894;SDS011;57172;52.034;5.090;2022-10-14T15:52:14;10.93;;;7.33;;
69894;SDS011;57172;52.034;5.090;2022-10-14T15:54:44;11.70;;;7.68;;
69894;SDS011;57172;52.034;5.090;2022-10-14T15:57:12;13.85;;;7.72;;
69894;SDS011;57172;52.034;5.090;2022-10-14T15:59:45;13.82;;;7.97;;
69894;SDS011;57172;52.034;5.090;2022-10-14T16:02:20;12.43;;;8.15;;
69894;SDS011;57172;52.034;5.090;2022-10-14T16:04:57;14.60;;;7.73;;
69894;SDS011;57172;52.034;5.090;2022-10-14T16:07:44;13.02;;;7.90;;
69894;SDS011;57172;52.034;5.090;2022-10-14T16:10:12;13.07;;;8.07;;
69894;SDS011;57172;52.034;5.090;2022-10-14T16:12:41;11.52;;;7.50;;
69894;SDS011;57172;52.034;5.090;2022-10-14T16:18:04;11.27;;;7.67;;
69894;SDS011;57172;52.034;5.090;2022-10-14T16:20:30;13.15;;;8.02;;
69894;SDS011;57172;52.034;5.090;2022-10-14T16:22:57;13.10;;;7.70;;
69894;SDS011;57172;52.034;5.090;2022-10-14T16:25:35;12.93;;;7.70;;
69894;SDS011;57172;52.034;5.090;2022-10-14T16:28:05;12.40;;;7.97;;
69894;SDS011;57172;52.034;5.090;2022-10-14T16:30:36;12.50;;;7.87;;
69894;SDS011;57172;52.034;5.090;2022-10-14T16:33:09;12.18;;;8.35;;
69894;SDS011;57172;52.034;5.090;2022-10-14T16:35:36;12.23;;;8.18;;
69894;SDS011;57172;52.034;5.090;2022-10-14T16:38:03;13.80;;;8.75;;
69894;SDS011;57172;52.034;5.090;2022-10-14T16:40:30;13.82;;;9.02;;
69894;SDS011;57172;52.034;5.090;2022-10-14T16:43:03;13.57;;;8.67;;
69894;SDS011;57172;52.034;5.090;2022-10-14T16:45:31;15.27;;;9.10;;
69894;SDS011;57172;52.034;5.090;2022-10-14T16:47:57;13.73;;;9.05;;
69894;SDS011;57172;52.034;5.090;2022-10-14T16:50:24;14.52;;;8.95;;
69894;SDS011;57172;52.034;5.090;2022-10-14T16:52:52;13.18;;;8.20;;
69894;SDS011;57172;52.034;5.090;2022-10-14T16:55:38;13.10;;;8.07;;
69894;SDS011;57172;52.034;5.090;2022-10-14T16:58:04;13.48;;;8.50;;
69894;SDS011;57172;52.034;5.090;2022-10-14T17:00:32;13.77;;;8.43;;
69894;SDS011;57172;52.034;5.090;2022-10-14T17:02:59;12.05;;;7.50;;
69894;SDS011;57172;52.034;5.090;2022-10-14T17:05:27;23.92;;;14.88;;
69894;SDS011;57172;52.034;5.090;2022-10-14T17:07:54;16.57;;;9.60;;
69894;SDS011;57172;52.034;5.090;2022-10-14T17:10:20;13.50;;;8.57;;
69894;SDS011;57172;52.034;5.090;2022-10-14T17:12:47;13.98;;;8.80;;
69894;SDS011;57172;52.034;5.090;2022-10-14T17:15:14;14.35;;;8.80;;
69894;SDS011;57172;52.034;5.090;2022-10-14T17:17:41;13.60;;;8.85;;
69894;SDS011;57172;52.034;5.090;2022-10-14T17:20:08;14.57;;;8.77;;
69894;SDS011;57172;52.034;5.090;2022-10-14T17:22:35;15.40;;;8.98;;
69894;SDS011;57172;52.034;5.090;2022-10-14T17:25:02;13.75;;;9.15;;
69894;SDS011;57172;52.034;5.090;2022-10-14T17:27:30;13.85;;;9.10;;
69894;SDS011;57172;52.034;5.090;2022-10-14T17:29:57;16.65;;;9.70;;
69894;SDS011;57172;52.034;5.090;2022-10-14T17:32:24;15.47;;;9.53;;
69894;SDS011;57172;52.034;5.090;2022-10-14T17:34:54;14.93;;;9.55;;